sensor_id;sensor_type;location;lat;lon;timestamp;pressure;altitude;pressure_sealevel;temperature;humidity
29417;BME280;28421;51.030;4.006;2024-03-06T00:01:10;101667.75;;;8.17;100.00
29417;BME280;28421;51.030;4.006;2024-03-06T00:03:36;101668.03;;;8.24;100.00
29417;BME280;28421;51.030;4.006;2024-03-06T00:06:01;101641.88;;;7.97;100.00
29417;BME280;28421;51.030;4.006;2024-03-06T00:08:27;101654.56;;;7.95;100.00
29417;BME280;28421;51.030;4.006;2024-03-06T00:10:53;101687.75;;;8.13;100.00
29417;BME280;28421;51.030;4.006;2024-03-06T00:13:18;101675.88;;;8.06;100.00
29417;BME280;28421;51.030;4.006;2024-03-06T00:15:44;101676.97;;;7.94;100.00
29417;BME280;28421;51.030;4.006;2024-03-06T00:18:10;101658.19;;;7.84;100.00
29417;BME280;28421;51.030;4.006;2024-03-06T00:20:35;101686.44;;;7.98;100.00
29417;BME280;28421;51.030;4.006;2024-03-06T00:23:01;101672.72;;;7.91;100.00
29417;BME280;28421;51.030;4.006;2024-03-06T00:25:26;101674.69;;;7.89;100.00
29417;BME280;28421;51.030;4.006;2024-03-06T00:27:52;101664.38;;;7.85;100.00
29417;BME280;28421;51.030;4.006;2024-03-06T00:30:17;101690.53;;;8.02;100.00
29417;BME280;28421;51.030;4.006;2024-03-06T00:32:43;101692.94;;;8.05;100.00
29417;BME280;28421;51.030;4.006;2024-03-06T00:35:09;101712.09;;;8.01;100.00
29417;BME280;28421;51.030;4.006;2024-03-06T00:37:36;101685.66;;;7.86;100.00
29417;BME280;28421;51.030;4.006;2024-03-06T00:40:01;101673.78;;;7.79;100.00
29417;BME280;28421;51.030;4.006;2024-03-06T00:42:28;101721.09;;;8.00;100.00
29417;BME280;28421;51.030;4.006;2024-03-06T00:44:54;101693.78;;;7.75;100.00
29417;BME280;28421;51.030;4.006;2024-03-06T00:47:19;101670.63;;;7.64;100.00
29417;BME280;28421;51.030;4.006;2024-03-06T00:49:46;101685.00;;;7.63;100.00
29417;BME280;28421;51.030;4.006;2024-03-06T00:52:12;101669.66;;;7.44;100.00
29417;BME280;28421;51.030;4.006;2024-03-06T00:54:37;101702.81;;;7.53;100.00
29417;BME280;28421;51.030;4.006;2024-03-06T00:57:03;101700.53;;;7.48;100.00
29417;BME280;28421;51.030;4.006;2024-03-06T00:59:28;101697.53;;;7.42;100.00
29417;BME280;28421;51.030;4.006;2024-03-06T01:01:54;101712.63;;;7.43;100.00
29417;BME280;28421;51.030;4.006;2024-03-06T01:04:23;101727.69;;;7.44;100.00
29417;BME280;28421;51.030;4.006;2024-03-06T01:06:48;101723.03;;;7.25;100.00
29417;BME280;28421;51.030;4.006;2024-03-06T01:09:14;101744.22;;;7.17;100.00
29417;BME280;28421;51.030;4.006;2024-03-06T01:11:39;101722.06;;;6.94;100.00
29417;BME280;28421;51.030;4.006;2024-03-06T01:14:05;101724.91;;;6.81;100.00
29417;BME280;28421;51.030;4.006;2024-03-06T01:16:31;101697.16;;;6.61;100.00
29417;BME280;28421;51.030;4.006;2024-03-06T01:18:56;101704.69;;;6.56;100.00
29417;BME280;28421;51.030;4.006;2024-03-06T01:21:22;101717.84;;;6.48;100.00
29417;BME280;28421;51.030;4.006;2024-03-06T01:23:47;101712.50;;;6.48;100.00
29417;BME280;28421;51.030;4.006;2024-03-06T01:26:13;101726.44;;;6.52;100.00
29417;BME280;28421;51.030;4.006;2024-03-06T01:28:38;101734.00;;;6.35;100.00
29417;BME280;28421;51.030;4.006;2024-03-06T01:31:04;101711.03;;;6.21;100.00
29417;BME280;28421;51.030;4.006;2024-03-06T01:33:29;101705.13;;;6.07;100.00
29417;BME280;28421;51.030;4.006;2024-03-06T01:35:54;101711.91;;;6.00;100.00
29417;BME280;28421;51.030;4.006;2024-03-06T01:38:20;101736.69;;;6.02;100.00
29417;BME280;28421;51.030;4.006;2024-03-06T01:40:45;101764.47;;;6.10;100.00
29417;BME280;28421;51.030;4.006;2024-03-06T01:43:22;101752.78;;;6.00;100.00
29417;BME280;28421;51.030;4.006;2024-03-06T01:45:49;101759.34;;;5.96;100.00
29417;BME280;28421;51.030;4.006;2024-03-06T01:48:16;101725.69;;;5.71;100.00
29417;BME280;28421;51.030;4.006;2024-03-06T01:50:42;101713.28;;;5.47;100.00
29417;BME280;28421;51.030;4.006;2024-03-06T01:53:09;101714.81;;;5.39;100.00
29417;BME280;28421;51.030;4.006;2024-03-06T01:55:35;101720.84;;;5.30;100.00
29417;BME280;28421;51.030;4.006;2024-03-06T01:58:01;101696.31;;;5.02;100.00
29417;BME280;28421;51.030;4.006;2024-03-06T02:00:27;101722.31;;;5.22;100.00
29417;BME280;28421;51.030;4.006;2024-03-06T02:02:53;101726.88;;;5.20;100.00
29417;BME280;28421;51.030;4.006;2024-03-06T02:05:19;101741.81;;;5.23;100.00
29417;BME280;28421;51.030;4.006;2024-03-06T02:07:47;101746.63;;;5.18;100.00
29417;BME280;28421;51.030;4.006;2024-03-06T02:10:13;101785.81;;;5.29;100.00
29417;BME280;28421;51.030;4.006;2024-03-06T02:12:38;101723.13;;;4.88;100.00
29417;BME280;28421;51.030;4.006;2024-03-06T02:15:04;101750.34;;;5.04;100.00
29417;BME280;28421;51.030;4.006;2024-03-06T02:17:30;101766.09;;;5.07;100.00
29417;BME280;28421;51.030;4.006;2024-03-06T02:19:56;101752.44;;;4.88;100.00
29417;BME280;28421;51.030;4.006;2024-03-06T02:22:23;101782.53;;;5.01;100.00
29417;BME280;28421;51.030;4.006;2024-03-06T02:24:49;101727.59;;;4.63;100.00
29417;BME280;28421;51.030;4.006;2024-03-06T02:27:15;101782.25;;;4.93;100.00
29417;BME280;28421;51.030;4.006;2024-03-06T02:29:42;101758.78;;;4.74;100.00
29417;BME280;28421;51.030;4.006;2024-03-06T02:32:07;101777.81;;;4.81;100.00
29417;BME280;28421;51.030;4.006;2024-03-06T02:34:33;101800.38;;;4.88;100.00
29417;BME280;28421;51.030;4.006;2024-03-06T02:36:59;101752.41;;;4.64;100.00
29417;BME280;28421;51.030;4.006;2024-03-06T02:39:25;101735.94;;;4.46;100.00
29417;BME280;28421;51.030;4.006;2024-03-06T02:41:50;101769.91;;;4.55;100.00
29417;BME280;28421;51.030;4.006;2024-03-06T02:44:15;101768.41;;;4.51;100.00
29417;BME280;28421;51.030;4.006;2024-03-06T02:46:47;101760.75;;;4.46;100.00
29417;BME280;28421;51.030;4.006;2024-03-06T02:49:13;101769.28;;;4.39;100.00
29417;BME280;28421;51.030;4.006;2024-03-06T02:51:38;101749.66;;;4.16;100.00
29417;BME280;28421;51.030;4.006;2024-03-06T02:54:04;101756.53;;;4.18;100.00
29417;BME280;28421;51.030;4.006;2024-03-06T02:56:29;101753.59;;;4.23;100.00
29417;BME280;28421;51.030;4.006;2024-03-06T02:58:55;101771.88;;;4.28;100.00
29417;BME280;28421;51.030;4.006;2024-03-06T03:01:20;101736.78;;;3.97;100.00
29417;BME280;28421;51.030;4.006;2024-03-06T03:03:45;101764.47;;;4.07;100.00
29417;BME280;28421;51.030;4.006;2024-03-06T03:06:12;101787.94;;;4.26;100.00
29417;BME280;28421;51.030;4.006;2024-03-06T03:08:38;101779.00;;;4.14;100.00
29417;BME280;28421;51.030;4.006;2024-03-06T03:11:04;101736.97;;;3.81;100.00
29417;BME280;28421;51.030;4.006;2024-03-06T03:13:30;101748.59;;;3.93;100.00
29417;BME280;28421;51.030;4.006;2024-03-06T03:15:56;101761.69;;;3.96;100.00
29417;BME280;28421;51.030;4.006;2024-03-06T03:18:22;101756.56;;;3.93;100.00
29417;BME280;28421;51.030;4.006;2024-03-06T03:20:47;101735.72;;;3.74;100.00
29417;BME280;28421;51.030;4.006;2024-03-06T03:23:12;101751.69;;;3.87;100.00
29417;BME280;28421;51.030;4.006;2024-03-06T03:25:40;101750.41;;;3.80;100.00
29417;BME280;28421;51.030;4.006;2024-03-06T03:28:09;101760.06;;;3.81;100.00
29417;BME280;28421;51.030;4.006;2024-03-06T03:30:35;101767.72;;;3.72;100.00
29417;BME280;28421;51.030;4.006;2024-03-06T03:33:01;101722.19;;;3.39;100.00
29417;BME280;28421;51.030;4.006;2024-03-06T03:35:26;101810.94;;;3.89;100.00
29417;BME280;28421;51.030;4.006;2024-03-06T03:37:52;101789.56;;;3.78;100.00
29417;BME280;28421;51.030;4.006;2024-03-06T03:40:18;101759.84;;;3.58;100.00
29417;BME280;28421;51.030;4.006;2024-03-06T03:42:44;101797.25;;;3.82;100.00
29417;BME280;28421;51.030;4.006;2024-03-06T03:45:09;101758.47;;;3.53;100.00
29417;BME280;28421;51.030;4.006;2024-03-06T03:47:34;101763.88;;;3.51;100.00
29417;BME280;28421;51.030;4.006;2024-03-06T03:50:00;101772.19;;;3.46;100.00
29417;BME280;28421;51.030;4.006;2024-03-06T03:52:25;101774.44;;;3.53;100.00
29417;BME280;28421;51.030;4.006;2024-03-06T03:54:51;101790.28;;;3.54;100.00
29417;BME280;28421;51.030;4.006;2024-03-06T03:57:16;101780.63;;;3.26;100.00
29417;BME280;28421;51.030;4.006;2024-03-06T03:59:43;101756.41;;;3.31;100.00
29417;BME280;28421;51.030;4.006;2024-03-06T04:02:08;101765.22;;;3.31;100.00
29417;BME280;28421;51.030;4.006;2024-03-06T04:04:34;101781.63;;;3.38;100.00
29417;BME280;28421;51.030;4.006;2024-03-06T04:07:00;101781.50;;;3.39;100.00
29417;BME280;28421;51.030;4.006;2024-03-06T04:09:30;101801.22;;;3.49;100.00
29417;BME280;28421;51.030;4.006;2024-03-06T04:11:55;101792.72;;;3.44;100.00
29417;BME280;28421;51.030;4.006;2024-03-06T04:14:21;101815.16;;;3.53;100.00
29417;BME280;28421;51.030;4.006;2024-03-06T04:16:47;101784.41;;;3.36;100.00
29417;BME280;28421;51.030;4.006;2024-03-06T04:19:13;101798.22;;;3.41;100.00
29417;BME280;28421;51.030;4.006;2024-03-06T04:21:42;101817.50;;;3.58;100.00
29417;BME280;28421;51.030;4.006;2024-03-06T04:24:08;101790.84;;;3.19;100.00
29417;BME280;28421;51.030;4.006;2024-03-06T04:26:33;101789.75;;;3.22;100.00
29417;BME280;28421;51.030;4.006;2024-03-06T04:28:59;101821.56;;;3.23;100.00
29417;BME280;28421;51.030;4.006;2024-03-06T04:31:24;101782.34;;;3.00;100.00
29417;BME280;28421;51.030;4.006;2024-03-06T04:33:50;101776.28;;;2.98;100.00
29417;BME280;28421;51.030;4.006;2024-03-06T04:36:16;101789.91;;;3.06;100.00
29417;BME280;28421;51.030;4.006;2024-03-06T04:38:42;101837.59;;;3.22;100.00
29417;BME280;28421;51.030;4.006;2024-03-06T04:41:08;101806.75;;;2.92;100.00
29417;BME280;28421;51.030;4.006;2024-03-06T04:43:33;101819.38;;;2.89;100.00
29417;BME280;28421;51.030;4.006;2024-03-06T04:46:00;101808.81;;;2.74;100.00
29417;BME280;28421;51.030;4.006;2024-03-06T04:48:25;101808.03;;;2.72;100.00
29417;BME280;28421;51.030;4.006;2024-03-06T04:50:51;101821.97;;;2.76;100.00
29417;BME280;28421;51.030;4.006;2024-03-06T04:53:17;101815.16;;;2.72;100.00
29417;BME280;28421;51.030;4.006;2024-03-06T04:55:42;101826.81;;;2.69;100.00
29417;BME280;28421;51.030;4.006;2024-03-06T04:58:07;101838.38;;;2.83;100.00
29417;BME280;28421;51.030;4.006;2024-03-06T05:00:34;101843.28;;;2.89;100.00
29417;BME280;28421;51.030;4.006;2024-03-06T05:02:59;101832.88;;;2.71;100.00
29417;BME280;28421;51.030;4.006;2024-03-06T05:05:25;101823.16;;;2.58;100.00
29417;BME280;28421;51.030;4.006;2024-03-06T05:07:51;101834.50;;;2.60;100.00
29417;BME280;28421;51.030;4.006;2024-03-06T05:10:17;101837.56;;;2.54;100.00
29417;BME280;28421;51.030;4.006;2024-03-06T05:12:43;101848.19;;;2.54;100.00
29417;BME280;28421;51.030;4.006;2024-03-06T05:15:10;101887.63;;;2.74;100.00
29417;BME280;28421;51.030;4.006;2024-03-06T05:17:35;101872.81;;;2.56;100.00
29417;BME280;28421;51.030;4.006;2024-03-06T05:20:01;101894.53;;;2.77;100.00
29417;BME280;28421;51.030;4.006;2024-03-06T05:22:28;101858.50;;;2.44;100.00
29417;BME280;28421;51.030;4.006;2024-03-06T05:24:54;101864.03;;;2.41;100.00
29417;BME280;28421;51.030;4.006;2024-03-06T05:27:21;101896.41;;;2.60;100.00
29417;BME280;28421;51.030;4.006;2024-03-06T05:29:46;101873.75;;;2.40;100.00
29417;BME280;28421;51.030;4.006;2024-03-06T05:32:12;101870.19;;;2.41;100.00
29417;BME280;28421;51.030;4.006;2024-03-06T05:34:38;101859.91;;;2.35;100.00
29417;BME280;28421;51.030;4.006;2024-03-06T05:37:03;101871.19;;;2.39;100.00
29417;BME280;28421;51.030;4.006;2024-03-06T05:39:30;101858.31;;;2.33;100.00
29417;BME280;28421;51.030;4.006;2024-03-06T05:42:00;101885.88;;;2.44;100.00
29417;BME280;28421;51.030;4.006;2024-03-06T05:44:28;101880.31;;;2.35;100.00
29417;BME280;28421;51.030;4.006;2024-03-06T05:46:53;101882.00;;;2.36;100.00
29417;BME280;28421;51.030;4.006;2024-03-06T05:49:19;101890.91;;;2.35;100.00
29417;BME280;28421;51.030;4.006;2024-03-06T05:51:44;101857.84;;;2.12;100.00
29417;BME280;28421;51.030;4.006;2024-03-06T05:54:10;101892.81;;;2.33;100.00
29417;BME280;28421;51.030;4.006;2024-03-06T05:56:36;101895.56;;;2.31;100.00
29417;BME280;28421;51.030;4.006;2024-03-06T05:59:01;101873.47;;;2.16;100.00
29417;BME280;28421;51.030;4.006;2024-03-06T06:01:30;101896.69;;;2.27;100.00
29417;BME280;28421;51.030;4.006;2024-03-06T06:03:57;101902.56;;;2.32;100.00
29417;BME280;28421;51.030;4.006;2024-03-06T06:06:22;101910.63;;;2.31;100.00
29417;BME280;28421;51.030;4.006;2024-03-06T06:08:48;101908.66;;;2.34;100.00
29417;BME280;28421;51.030;4.006;2024-03-06T06:11:13;101906.16;;;2.17;100.00
29417;BME280;28421;51.030;4.006;2024-03-06T06:13:39;101951.97;;;2.35;100.00
29417;BME280;28421;51.030;4.006;2024-03-06T06:16:07;101915.25;;;2.13;100.00
29417;BME280;28421;51.030;4.006;2024-03-06T06:18:33;101954.59;;;2.35;100.00
29417;BME280;28421;51.030;4.006;2024-03-06T06:20:58;101893.13;;;1.98;100.00
29417;BME280;28421;51.030;4.006;2024-03-06T06:23:24;101907.91;;;2.02;100.00
29417;BME280;28421;51.030;4.006;2024-03-06T06:25:50;101882.66;;;1.81;100.00
29417;BME280;28421;51.030;4.006;2024-03-06T06:28:16;101926.97;;;2.09;100.00
29417;BME280;28421;51.030;4.006;2024-03-06T06:30:42;101951.94;;;2.20;100.00
29417;BME280;28421;51.030;4.006;2024-03-06T06:33:07;101973.34;;;2.32;100.00
29417;BME280;28421;51.030;4.006;2024-03-06T06:35:34;101930.84;;;2.03;100.00
29417;BME280;28421;51.030;4.006;2024-03-06T06:38:03;101953.81;;;2.18;100.00
29417;BME280;28421;51.030;4.006;2024-03-06T06:40:30;101939.19;;;2.11;100.00
29417;BME280;28421;51.030;4.006;2024-03-06T06:42:55;101940.91;;;2.12;100.00
29417;BME280;28421;51.030;4.006;2024-03-06T06:45:21;101946.03;;;2.15;100.00
29417;BME280;28421;51.030;4.006;2024-03-06T06:47:48;101951.78;;;2.38;100.00
29417;BME280;28421;51.030;4.006;2024-03-06T06:50:14;101959.34;;;2.44;100.00
29417;BME280;28421;51.030;4.006;2024-03-06T06:52:39;102006.34;;;2.72;100.00
29417;BME280;28421;51.030;4.006;2024-03-06T06:55:05;101967.66;;;2.54;100.00
29417;BME280;28421;51.030;4.006;2024-03-06T06:57:31;101998.47;;;2.70;100.00
29417;BME280;28421;51.030;4.006;2024-03-06T06:59:59;101977.97;;;2.58;100.00
29417;BME280;28421;51.030;4.006;2024-03-06T07:02:24;102016.59;;;2.92;100.00
29417;BME280;28421;51.030;4.006;2024-03-06T07:04:51;101973.44;;;2.74;100.00
29417;BME280;28421;51.030;4.006;2024-03-06T07:07:16;102020.13;;;3.07;100.00
29417;BME280;28421;51.030;4.006;2024-03-06T07:09:43;101989.84;;;3.10;100.00
29417;BME280;28421;51.030;4.006;2024-03-06T07:12:08;101990.50;;;3.13;100.00
29417;BME280;28421;51.030;4.006;2024-03-06T07:14:34;101986.91;;;3.14;100.00
29417;BME280;28421;51.030;4.006;2024-03-06T07:17:00;102030.72;;;3.50;100.00
29417;BME280;28421;51.030;4.006;2024-03-06T07:19:25;101999.63;;;3.23;100.00
29417;BME280;28421;51.030;4.006;2024-03-06T07:21:51;102036.72;;;3.39;100.00
29417;BME280;28421;51.030;4.006;2024-03-06T07:24:17;101970.88;;;3.02;100.00
29417;BME280;28421;51.030;4.006;2024-03-06T07:26:43;102047.16;;;3.57;100.00
29417;BME280;28421;51.030;4.006;2024-03-06T07:29:08;102012.13;;;3.36;100.00
29417;BME280;28421;51.030;4.006;2024-03-06T07:31:40;101976.56;;;3.10;100.00
29417;BME280;28421;51.030;4.006;2024-03-06T07:34:07;102018.09;;;3.39;100.00
29417;BME280;28421;51.030;4.006;2024-03-06T07:36:34;102013.25;;;3.46;100.00
29417;BME280;28421;51.030;4.006;2024-03-06T07:39:01;102053.00;;;3.76;100.00
29417;BME280;28421;51.030;4.006;2024-03-06T07:41:26;102039.34;;;3.68;100.00
29417;BME280;28421;51.030;4.006;2024-03-06T07:43:51;102016.06;;;3.71;100.00
29417;BME280;28421;51.030;4.006;2024-03-06T07:46:17;102042.88;;;3.95;100.00
29417;BME280;28421;51.030;4.006;2024-03-06T07:48:43;102059.44;;;4.13;100.00
29417;BME280;28421;51.030;4.006;2024-03-06T07:51:11;102057.47;;;4.30;100.00
29417;BME280;28421;51.030;4.006;2024-03-06T07:53:37;102038.69;;;4.58;100.00
29417;BME280;28421;51.030;4.006;2024-03-06T07:56:03;102013.34;;;4.53;100.00
29417;BME280;28421;51.030;4.006;2024-03-06T07:58:29;102003.03;;;4.73;100.00
29417;BME280;28421;51.030;4.006;2024-03-06T08:00:54;102036.19;;;5.08;100.00
29417;BME280;28421;51.030;4.006;2024-03-06T08:03:22;102021.88;;;5.09;100.00
29417;BME280;28421;51.030;4.006;2024-03-06T08:05:51;102056.81;;;5.42;100.00
29417;BME280;28421;51.030;4.006;2024-03-06T08:08:18;102045.81;;;5.47;100.00
29417;BME280;28421;51.030;4.006;2024-03-06T08:10:43;102051.03;;;5.61;100.00
29417;BME280;28421;51.030;4.006;2024-03-06T08:13:10;102076.81;;;5.86;100.00
29417;BME280;28421;51.030;4.006;2024-03-06T08:15:36;102018.34;;;5.70;100.00
29417;BME280;28421;51.030;4.006;2024-03-06T08:18:01;102056.78;;;6.05;100.00
29417;BME280;28421;51.030;4.006;2024-03-06T08:20:29;102067.81;;;6.24;100.00
29417;BME280;28421;51.030;4.006;2024-03-06T08:22:55;102044.13;;;6.19;100.00
29417;BME280;28421;51.030;4.006;2024-03-06T08:25:21;102064.13;;;6.38;100.00
29417;BME280;28421;51.030;4.006;2024-03-06T08:27:47;102053.84;;;6.44;100.00
29417;BME280;28421;51.030;4.006;2024-03-06T08:30:12;102057.63;;;6.53;100.00
29417;BME280;28421;51.030;4.006;2024-03-06T08:32:38;102096.34;;;6.83;100.00
29417;BME280;28421;51.030;4.006;2024-03-06T08:35:05;102063.66;;;6.79;100.00
29417;BME280;28421;51.030;4.006;2024-03-06T08:37:37;102060.63;;;6.84;100.00
29417;BME280;28421;51.030;4.006;2024-03-06T08:40:03;102044.84;;;6.81;100.00
29417;BME280;28421;51.030;4.006;2024-03-06T08:42:29;102073.44;;;7.03;100.00
29417;BME280;28421;51.030;4.006;2024-03-06T08:44:54;102058.94;;;6.94;100.00
29417;BME280;28421;51.030;4.006;2024-03-06T08:47:20;102084.03;;;7.15;100.00
29417;BME280;28421;51.030;4.006;2024-03-06T08:49:45;102100.09;;;7.38;100.00
29417;BME280;28421;51.030;4.006;2024-03-06T08:52:13;102112.38;;;7.63;100.00
29417;BME280;28421;51.030;4.006;2024-03-06T08:54:40;102115.91;;;7.75;100.00
29417;BME280;28421;51.030;4.006;2024-03-06T08:57:06;102121.13;;;7.98;100.00
29417;BME280;28421;51.030;4.006;2024-03-06T08:59:34;102057.53;;;7.68;100.00
29417;BME280;28421;51.030;4.006;2024-03-06T09:02:12;102063.56;;;7.93;100.00
29417;BME280;28421;51.030;4.006;2024-03-06T09:04:38;102077.66;;;8.06;100.00
29417;BME280;28421;51.030;4.006;2024-03-06T09:07:04;102088.81;;;8.22;100.00
29417;BME280;28421;51.030;4.006;2024-03-06T09:09:29;102105.56;;;8.36;100.00
29417;BME280;28421;51.030;4.006;2024-03-06T09:11:55;102090.28;;;8.15;100.00
29417;BME280;28421;51.030;4.006;2024-03-06T09:14:20;102102.28;;;8.43;100.00
29417;BME280;28421;51.030;4.006;2024-03-06T09:16:45;102072.22;;;8.40;100.00
29417;BME280;28421;51.030;4.006;2024-03-06T09:19:11;102114.50;;;8.68;100.00
29417;BME280;28421;51.030;4.006;2024-03-06T09:21:36;102103.38;;;8.73;100.00
29417;BME280;28421;51.030;4.006;2024-03-06T09:24:02;102129.22;;;8.95;100.00
29417;BME280;28421;51.030;4.006;2024-03-06T09:26:27;102102.09;;;8.88;100.00
29417;BME280;28421;51.030;4.006;2024-03-06T09:28:53;102145.81;;;9.00;100.00
29417;BME280;28421;51.030;4.006;2024-03-06T09:31:18;102120.28;;;8.85;100.00
29417;BME280;28421;51.030;4.006;2024-03-06T09:33:44;102092.59;;;8.84;100.00
29417;BME280;28421;51.030;4.006;2024-03-06T09:36:11;102127.88;;;9.01;100.00
29417;BME280;28421;51.030;4.006;2024-03-06T09:38:39;102127.59;;;9.25;100.00
29417;BME280;28421;51.030;4.006;2024-03-06T09:41:07;102146.19;;;9.37;100.00
29417;BME280;28421;51.030;4.006;2024-03-06T09:43:32;102116.81;;;8.94;100.00
29417;BME280;28421;51.030;4.006;2024-03-06T09:45:58;102127.06;;;9.31;100.00
29417;BME280;28421;51.030;4.006;2024-03-06T09:48:24;102119.88;;;9.31;100.00
29417;BME280;28421;51.030;4.006;2024-03-06T09:50:51;102136.03;;;9.71;100.00
29417;BME280;28421;51.030;4.006;2024-03-06T09:53:18;102152.97;;;10.03;100.00
29417;BME280;28421;51.030;4.006;2024-03-06T09:55:46;102167.00;;;10.16;100.00
29417;BME280;28421;51.030;4.006;2024-03-06T09:58:11;102157.53;;;10.12;100.00
29417;BME280;28421;51.030;4.006;2024-03-06T10:00:37;102174.88;;;10.29;100.00
29417;BME280;28421;51.030;4.006;2024-03-06T10:03:03;102151.97;;;10.44;100.00
29417;BME280;28421;51.030;4.006;2024-03-06T10:05:31;102182.13;;;11.15;100.00
29417;BME280;28421;51.030;4.006;2024-03-06T10:08:00;102158.41;;;11.48;100.00
29417;BME280;28421;51.030;4.006;2024-03-06T10:10:26;102161.50;;;11.63;100.00
29417;BME280;28421;51.030;4.006;2024-03-06T10:12:52;102154.19;;;11.45;100.00
29417;BME280;28421;51.030;4.006;2024-03-06T10:15:18;102160.75;;;10.94;100.00
29417;BME280;28421;51.030;4.006;2024-03-06T10:17:43;102155.38;;;10.46;100.00
29417;BME280;28421;51.030;4.006;2024-03-06T10:20:23;102173.75;;;10.31;100.00
29417;BME280;28421;51.030;4.006;2024-03-06T10:22:50;102173.78;;;10.60;100.00
29417;BME280;28421;51.030;4.006;2024-03-06T10:25:23;102192.50;;;10.81;100.00
29417;BME280;28421;51.030;4.006;2024-03-06T10:28:08;102190.97;;;10.79;100.00
29417;BME280;28421;51.030;4.006;2024-03-06T10:30:35;102186.22;;;10.42;100.00
29417;BME280;28421;51.030;4.006;2024-03-06T10:33:03;102180.16;;;10.59;100.00
29417;BME280;28421;51.030;4.006;2024-03-06T10:35:29;102163.88;;;10.61;100.00
29417;BME280;28421;51.030;4.006;2024-03-06T10:37:55;102167.28;;;10.63;100.00
29417;BME280;28421;51.030;4.006;2024-03-06T10:40:22;102177.91;;;10.84;100.00
29417;BME280;28421;51.030;4.006;2024-03-06T10:42:48;102184.53;;;10.51;100.00
29417;BME280;28421;51.030;4.006;2024-03-06T10:45:14;102168.25;;;10.52;100.00
29417;BME280;28421;51.030;4.006;2024-03-06T10:47:46;102134.31;;;10.70;100.00
29417;BME280;28421;51.030;4.006;2024-03-06T10:50:14;102200.00;;;11.16;100.00
29417;BME280;28421;51.030;4.006;2024-03-06T10:52:40;102191.06;;;11.26;100.00
29417;BME280;28421;51.030;4.006;2024-03-06T10:55:08;102196.97;;;11.49;100.00
29417;BME280;28421;51.030;4.006;2024-03-06T10:57:36;102193.28;;;11.59;100.00
29417;BME280;28421;51.030;4.006;2024-03-06T11:00:03;102195.94;;;11.69;100.00
29417;BME280;28421;51.030;4.006;2024-03-06T11:02:29;102177.91;;;11.32;100.00
29417;BME280;28421;51.030;4.006;2024-03-06T11:04:55;102180.16;;;11.17;100.00
29417;BME280;28421;51.030;4.006;2024-03-06T11:07:20;102193.91;;;11.24;100.00
29417;BME280;28421;51.030;4.006;2024-03-06T11:09:46;102216.63;;;11.88;100.00
29417;BME280;28421;51.030;4.006;2024-03-06T11:12:33;102196.06;;;11.87;100.00
29417;BME280;28421;51.030;4.006;2024-03-06T11:15:00;102201.09;;;11.43;100.00
29417;BME280;28421;51.030;4.006;2024-03-06T11:17:26;102207.72;;;11.68;100.00
29417;BME280;28421;51.030;4.006;2024-03-06T11:28:16;102191.50;;;11.11;100.00
29417;BME280;28421;51.030;4.006;2024-03-06T11:30:55;102191.91;;;10.68;100.00
29417;BME280;28421;51.030;4.006;2024-03-06T11:33:21;102203.81;;;11.14;100.00
29417;BME280;28421;51.030;4.006;2024-03-06T11:36:15;102223.72;;;11.79;100.00
29417;BME280;28421;51.030;4.006;2024-03-06T11:41:28;102229.59;;;12.12;98.14
29417;BME280;28421;51.030;4.006;2024-03-06T11:43:55;102207.47;;;11.52;99.61
29417;BME280;28421;51.030;4.006;2024-03-06T11:46:23;102220.69;;;12.29;100.00
29417;BME280;28421;51.030;4.006;2024-03-06T11:48:55;102212.47;;;11.37;99.11
29417;BME280;28421;51.030;4.006;2024-03-06T11:51:22;102226.69;;;11.86;100.00
29417;BME280;28421;51.030;4.006;2024-03-06T11:53:51;102243.00;;;11.75;100.00
29417;BME280;28421;51.030;4.006;2024-03-06T11:56:18;102208.03;;;12.12;99.26
29417;BME280;28421;51.030;4.006;2024-03-06T11:58:45;102190.59;;;12.34;97.30
29417;BME280;28421;51.030;4.006;2024-03-06T12:01:10;102203.53;;;11.36;100.00
29417;BME280;28421;51.030;4.006;2024-03-06T12:03:36;102186.81;;;11.80;100.00
29417;BME280;28421;51.030;4.006;2024-03-06T12:06:02;102206.59;;;12.35;100.00
29417;BME280;28421;51.030;4.006;2024-03-06T12:08:28;102229.00;;;12.46;100.00
29417;BME280;28421;51.030;4.006;2024-03-06T12:10:53;102213.88;;;11.98;97.50
29417;BME280;28421;51.030;4.006;2024-03-06T12:13:24;102233.19;;;12.58;97.66
29417;BME280;28421;51.030;4.006;2024-03-06T12:15:49;102208.81;;;12.50;92.59
29417;BME280;28421;51.030;4.006;2024-03-06T12:18:17;102232.47;;;12.01;99.92
29417;BME280;28421;51.030;4.006;2024-03-06T12:20:43;102201.25;;;11.98;99.85
29417;BME280;28421;51.030;4.006;2024-03-06T12:23:19;102179.78;;;12.06;98.09
29417;BME280;28421;51.030;4.006;2024-03-06T12:25:46;102193.75;;;11.92;97.62
29417;BME280;28421;51.030;4.006;2024-03-06T12:28:12;102187.47;;;12.01;96.28
29417;BME280;28421;51.030;4.006;2024-03-06T12:30:42;102215.84;;;12.05;96.52
29417;BME280;28421;51.030;4.006;2024-03-06T12:33:08;102226.28;;;11.90;94.27
29417;BME280;28421;51.030;4.006;2024-03-06T12:35:37;102201.69;;;12.03;95.16
29417;BME280;28421;51.030;4.006;2024-03-06T12:38:15;102231.78;;;11.89;92.88
29417;BME280;28421;51.030;4.006;2024-03-06T12:40:44;102218.59;;;11.96;95.72
29417;BME280;28421;51.030;4.006;2024-03-06T12:43:09;102207.63;;;12.07;95.61
29417;BME280;28421;51.030;4.006;2024-03-06T12:45:36;102202.19;;;12.16;91.76
29417;BME280;28421;51.030;4.006;2024-03-06T12:48:03;102197.03;;;11.96;90.05
29417;BME280;28421;51.030;4.006;2024-03-06T12:50:28;102201.44;;;11.77;94.04
29417;BME280;28421;51.030;4.006;2024-03-06T12:52:54;102220.50;;;12.13;94.63
29417;BME280;28421;51.030;4.006;2024-03-06T12:55:19;102241.63;;;12.45;93.22